Time;durP1;ratioP1;P1;durP2;ratioP2;P2;SDS_P1;SDS_P2;PMS_P1;PMS_P2;Temp;Humidity;BMP_temperature;BMP_pressure;BME280_temperature;BME280_humidity;BME280_pressure;Samples;Min_cycle;Max_cycle;Signal;HPM_P1;HPM_P2
2022/07/16 00:02:11;;;;;;;12.48;3.92;;;;;;;;;;5025239;28;20046;-77
2022/07/16 00:04:37;;;;;;;14.80;3.75;;;;;;;;;;5025499;28;20137;-77
2022/07/16 00:07:03;;;;;;;12.32;4.00;;;;;;;;;;5020563;28;20052;-76
2022/07/16 00:09:29;;;;;;;14.18;4.00;;;;;;;;;;5018640;28;20089;-77
2022/07/16 00:11:55;;;;;;;10.65;4.13;;;;;;;;;;5018843;28;20038;-78
2022/07/16 00:14:21;;;;;;;8.65;3.90;;;;;;;;;;5019801;28;20042;-76
2022/07/16 00:16:47;;;;;;;10.20;3.70;;;;;;;;;;5019933;28;20049;-77
2022/07/16 00:19:18;;;;;;;11.25;3.60;;;;;;;;;;5019701;28;20050;-77
2022/07/16 00:21:44;;;;;;;9.13;3.40;;;;;;;;;;5020723;28;20129;-77
2022/07/16 00:24:10;;;;;;;10.50;3.67;;;;;;;;;;5019593;28;20154;-77
2022/07/16 00:26:36;;;;;;;10.20;3.30;;;;;;;;;;5019201;28;20052;-77
2022/07/16 00:29:03;;;;;;;10.27;3.30;;;;;;;;;;5020746;28;20104;-77
2022/07/16 00:31:29;;;;;;;8.30;3.13;;;;;;;;;;5020538;28;20093;-77
2022/07/16 00:33:55;;;;;;;5.90;2.80;;;;;;;;;;5019429;28;20121;-76
2022/07/16 00:36:21;;;;;;;3.65;2.70;;;;;;;;;;5002245;28;20053;-76
2022/07/16 00:38:47;;;;;;;6.70;2.90;;;;;;;;;;5019913;28;20048;-76
2022/07/16 00:41:19;;;;;;;7.70;3.08;;;;;;;;;;5020106;28;20378;-78
2022/07/16 00:43:48;;;;;;;4.47;2.97;;;;;;;;;;5019908;28;20063;-77
2022/07/16 00:46:15;;;;;;;4.38;2.47;;;;;;;;;;5019416;28;20111;-77
2022/07/16 00:48:41;;;;;;;4.22;2.30;;;;;;;;;;5019262;28;20049;-76
2022/07/16 00:51:07;;;;;;;4.95;2.35;;;;;;;;;;5019095;28;20085;-77
2022/07/16 00:53:35;;;;;;;4.30;2.28;;;;;;;;;;5019195;28;20069;-77
2022/07/16 00:56:01;;;;;;;3.63;2.20;;;;;;;;;;5018824;28;20050;-77
2022/07/16 00:58:27;;;;;;;7.60;2.60;;;;;;;;;;5019172;28;20042;-77
2022/07/16 01:00:54;;;;;;;5.57;2.72;;;;;;;;;;5019669;28;20046;-77
2022/07/16 01:03:20;;;;;;;5.43;2.50;;;;;;;;;;5002428;28;20049;-77
2022/07/16 01:05:46;;;;;;;3.35;2.42;;;;;;;;;;5019894;28;20042;-77
2022/07/16 01:08:12;;;;;;;6.00;2.75;;;;;;;;;;5020384;28;20045;-77
2022/07/16 01:10:39;;;;;;;5.47;2.67;;;;;;;;;;5021671;28;20046;-77
2022/07/16 01:13:05;;;;;;;6.25;2.78;;;;;;;;;;5021152;28;20053;-77
2022/07/16 01:15:31;;;;;;;6.90;2.60;;;;;;;;;;5020539;28;20072;-78
2022/07/16 01:17:57;;;;;;;5.47;2.67;;;;;;;;;;5019746;28;20046;-78
2022/07/16 01:20:23;;;;;;;6.00;2.30;;;;;;;;;;5018927;28;20409;-75
2022/07/16 01:22:49;;;;;;;5.75;2.47;;;;;;;;;;5019840;28;20053;-76
2022/07/16 01:25:15;;;;;;;4.40;2.60;;;;;;;;;;5018760;28;20041;-76
2022/07/16 01:27:41;;;;;;;5.93;2.50;;;;;;;;;;5019462;28;20045;-76
2022/07/16 01:30:08;;;;;;;4.72;2.90;;;;;;;;;;5019520;28;20042;-76
2022/07/16 01:32:35;;;;;;;6.72;3.15;;;;;;;;;;5019450;28;20049;-77
2022/07/16 01:35:02;;;;;;;4.63;2.38;;;;;;;;;;5019495;28;20540;-77
2022/07/16 01:37:28;;;;;;;6.07;2.72;;;;;;;;;;5019376;28;20426;-77
2022/07/16 01:39:54;;;;;;;5.35;2.58;;;;;;;;;;5019516;28;20139;-77
2022/07/16 01:42:20;;;;;;;8.20;2.83;;;;;;;;;;5019866;28;20438;-77
2022/07/16 01:44:46;;;;;;;6.22;2.63;;;;;;;;;;5019285;28;20060;-77
2022/07/16 01:47:13;;;;;;;4.63;2.20;;;;;;;;;;5019411;28;20046;-77
2022/07/16 01:49:40;;;;;;;3.75;2.25;;;;;;;;;;5019887;28;20359;-76
2022/07/16 01:52:07;;;;;;;3.22;2.33;;;;;;;;;;5019304;28;20073;-77
2022/07/16 01:54:33;;;;;;;4.13;2.33;;;;;;;;;;5019557;28;20057;-77
2022/07/16 01:56:59;;;;;;;4.80;2.47;;;;;;;;;;5019422;28;20052;-77
2022/07/16 01:59:25;;;;;;;6.38;2.50;;;;;;;;;;5019377;28;20041;-77
2022/07/16 02:01:51;;;;;;;5.82;2.60;;;;;;;;;;5019612;28;20477;-77
2022/07/16 02:04:17;;;;;;;7.22;3.08;;;;;;;;;;5020059;28;20046;-77
2022/07/16 02:06:43;;;;;;;5.07;2.63;;;;;;;;;;5018969;28;20046;-77
2022/07/16 02:09:09;;;;;;;5.40;3.10;;;;;;;;;;5019809;28;20045;-78
2022/07/16 02:11:35;;;;;;;5.57;3.20;;;;;;;;;;5020060;28;20041;-77
2022/07/16 02:14:01;;;;;;;9.20;3.67;;;;;;;;;;5019834;28;20042;-77
2022/07/16 02:16:27;;;;;;;5.22;3.00;;;;;;;;;;5018998;28;20049;-77
2022/07/16 02:18:53;;;;;;;6.95;3.22;;;;;;;;;;5019967;28;20045;-77
2022/07/16 02:21:20;;;;;;;5.43;2.90;;;;;;;;;;5019196;28;20089;-76
2022/07/16 02:23:45;;;;;;;7.03;3.00;;;;;;;;;;5019392;28;20078;-78
2022/07/16 02:26:11;;;;;;;5.07;2.80;;;;;;;;;;5019056;28;20401;-77
2022/07/16 02:28:37;;;;;;;6.05;2.92;;;;;;;;;;5019208;28;20084;-77
2022/07/16 02:31:03;;;;;;;7.55;2.90;;;;;;;;;;5018369;28;20038;-77
2022/07/16 02:33:29;;;;;;;5.63;3.15;;;;;;;;;;5017890;28;20194;-77
2022/07/16 02:35:55;;;;;;;9.55;3.38;;;;;;;;;;5018415;28;20046;-76
2022/07/16 02:38:22;;;;;;;7.60;3.40;;;;;;;;;;5018998;28;20049;-76
2022/07/16 02:40:48;;;;;;;6.03;3.17;;;;;;;;;;5018334;28;20041;-77
2022/07/16 02:43:14;;;;;;;5.43;3.13;;;;;;;;;;5018349;28;20045;-76
2022/07/16 02:45:41;;;;;;;7.70;3.50;;;;;;;;;;5018056;28;20509;-77
2022/07/16 02:48:07;;;;;;;7.10;3.50;;;;;;;;;;5018585;28;20390;-76
2022/07/16 02:50:33;;;;;;;5.53;3.03;;;;;;;;;;5019004;28;20481;-77
2022/07/16 02:52:59;;;;;;;6.95;3.50;;;;;;;;;;5019161;28;20042;-77
2022/07/16 02:55:26;;;;;;;5.75;3.08;;;;;;;;;;5019042;28;20501;-76
2022/07/16 02:57:52;;;;;;;9.82;3.58;;;;;;;;;;5019523;28;20167;-77
2022/07/16 03:00:19;;;;;;;5.57;3.10;;;;;;;;;;5019802;28;20097;-77
2022/07/16 03:02:45;;;;;;;7.22;3.35;;;;;;;;;;5019800;28;20545;-77
2022/07/16 03:05:11;;;;;;;6.53;3.30;;;;;;;;;;5019380;28;20086;-77
2022/07/16 03:07:38;;;;;;;6.55;3.00;;;;;;;;;;5019089;28;20053;-77
2022/07/16 03:10:05;;;;;;;7.25;2.95;;;;;;;;;;5019423;28;20149;-77
2022/07/16 03:12:31;;;;;;;4.65;2.80;;;;;;;;;;5018911;28;20154;-77
2022/07/16 03:14:57;;;;;;;7.85;2.70;;;;;;;;;;5000796;28;20049;-76
2022/07/16 03:17:23;;;;;;;4.78;2.47;;;;;;;;;;5019260;28;20047;-76
2022/07/16 03:19:49;;;;;;;4.53;2.38;;;;;;;;;;5019605;28;20065;-77
2022/07/16 03:22:17;;;;;;;4.13;2.22;;;;;;;;;;5019338;28;20042;-78
2022/07/16 03:24:43;;;;;;;6.65;2.65;;;;;;;;;;5018792;28;20041;-77
2022/07/16 03:27:10;;;;;;;5.38;2.30;;;;;;;;;;5018977;28;20489;-78
2022/07/16 03:29:36;;;;;;;6.25;2.28;;;;;;;;;;5001099;28;20045;-77
2022/07/16 03:32:03;;;;;;;4.80;1.98;;;;;;;;;;4984563;28;20056;-77
2022/07/16 03:34:29;;;;;;;6.55;2.53;;;;;;;;;;5018336;28;20046;-77
2022/07/16 03:36:55;;;;;;;4.43;2.10;;;;;;;;;;5018334;28;20046;-78
2022/07/16 03:39:21;;;;;;;5.20;2.83;;;;;;;;;;5018080;28;20080;-77
2022/07/16 03:41:47;;;;;;;6.00;2.38;;;;;;;;;;5017688;28;20050;-78
2022/07/16 03:44:13;;;;;;;10.90;2.72;;;;;;;;;;5017900;28;20049;-78
2022/07/16 03:46:39;;;;;;;7.38;2.63;;;;;;;;;;5017677;28;20057;-78
2022/07/16 03:49:05;;;;;;;10.50;3.38;;;;;;;;;;5017893;28;20054;-78
2022/07/16 03:51:32;;;;;;;7.60;3.10;;;;;;;;;;5018169;28;20042;-77
2022/07/16 03:53:58;;;;;;;8.15;2.67;;;;;;;;;;5017460;28;20046;-77
2022/07/16 03:56:24;;;;;;;7.32;2.78;;;;;;;;;;5017576;28;20507;-77
2022/07/16 03:58:50;;;;;;;7.05;2.78;;;;;;;;;;5016533;28;20050;-77
2022/07/16 04:01:16;;;;;;;12.77;3.53;;;;;;;;;;5017304;28;20049;-77
2022/07/16 04:03:42;;;;;;;8.40;2.58;;;;;;;;;;5017105;28;20571;-77
2022/07/16 04:06:08;;;;;;;8.57;2.70;;;;;;;;;;5017558;28;20092;-77
2022/07/16 04:08:34;;;;;;;8.07;2.90;;;;;;;;;;5017048;28;20409;-77
2022/07/16 04:11:01;;;;;;;5.40;2.35;;;;;;;;;;5016360;28;20105;-77
2022/07/16 04:13:27;;;;;;;8.25;2.90;;;;;;;;;;5016719;28;20129;-78
2022/07/16 04:15:53;;;;;;;5.60;2.30;;;;;;;;;;5017373;28;20046;-77
2022/07/16 04:18:20;;;;;;;8.10;2.85;;;;;;;;;;5016775;28;20042;-78
2022/07/16 04:20:46;;;;;;;8.93;2.67;;;;;;;;;;4999757;28;20089;-78
2022/07/16 04:23:12;;;;;;;6.57;2.40;;;;;;;;;;4999488;28;20509;-77
2022/07/16 04:25:38;;;;;;;4.82;1.90;;;;;;;;;;5000548;28;20053;-77
2022/07/16 04:28:04;;;;;;;5.03;2.35;;;;;;;;;;5000103;28;20114;-77
2022/07/16 04:30:30;;;;;;;4.65;2.10;;;;;;;;;;5002505;28;20058;-78
2022/07/16 04:32:57;;;;;;;5.95;2.30;;;;;;;;;;5020482;28;20608;-77
2022/07/16 04:35:23;;;;;;;6.25;2.00;;;;;;;;;;5020403;28;20042;-77
2022/07/16 04:37:49;;;;;;;5.35;2.15;;;;;;;;;;5021120;28;20501;-77
2022/07/16 04:40:16;;;;;;;5.53;2.20;;;;;;;;;;5020216;28;20078;-78
2022/07/16 04:42:43;;;;;;;6.75;2.30;;;;;;;;;;5020421;28;20045;-77
2022/07/16 04:45:10;;;;;;;4.90;2.00;;;;;;;;;;5021029;28;20160;-77
2022/07/16 04:47:36;;;;;;;4.80;2.08;;;;;;;;;;5021033;28;20042;-78
2022/07/16 04:50:02;;;;;;;5.55;2.45;;;;;;;;;;5020841;28;20053;-77
2022/07/16 04:52:30;;;;;;;7.43;2.20;;;;;;;;;;5020403;28;20393;-77
2022/07/16 04:54:56;;;;;;;4.03;1.77;;;;;;;;;;5002626;28;20129;-77
2022/07/16 04:57:22;;;;;;;5.22;2.25;;;;;;;;;;5001938;28;20049;-78
2022/07/16 04:59:48;;;;;;;5.10;1.90;;;;;;;;;;5020131;28;20042;-77
2022/07/16 05:04:59;;;;;;;8.13;2.28;;;;;;;;;;5019567;28;20077;-77
2022/07/16 05:07:25;;;;;;;7.38;2.10;;;;;;;;;;5019488;28;20096;-77
2022/07/16 05:09:51;;;;;;;5.68;2.17;;;;;;;;;;5002452;28;20077;-78
2022/07/16 05:12:17;;;;;;;9.02;2.38;;;;;;;;;;5019636;28;20042;-78
2022/07/16 05:14:46;;;;;;;7.43;2.00;;;;;;;;;;5002322;28;20492;-77
2022/07/16 05:17:12;;;;;;;7.32;2.65;;;;;;;;;;5001418;28;20049;-78
2022/07/16 05:19:38;;;;;;;6.97;2.15;;;;;;;;;;5019422;28;20041;-77
2022/07/16 05:22:05;;;;;;;5.88;2.28;;;;;;;;;;5019240;28;20530;-78
2022/07/16 05:24:32;;;;;;;8.52;2.20;;;;;;;;;;5019473;28;20072;-78
2022/07/16 05:26:58;;;;;;;8.85;2.30;;;;;;;;;;5019406;28;20431;-77
2022/07/16 05:29:24;;;;;;;6.25;2.35;;;;;;;;;;5019761;28;20038;-78
2022/07/16 05:31:50;;;;;;;10.32;2.10;;;;;;;;;;5019304;28;20050;-77
2022/07/16 05:34:16;;;;;;;8.00;2.20;;;;;;;;;;5019588;28;20048;-77
2022/07/16 05:36:42;;;;;;;7.70;2.08;;;;;;;;;;4985357;28;20057;-78
2022/07/16 05:39:08;;;;;;;7.65;2.17;;;;;;;;;;5019611;28;20046;-78
2022/07/16 05:41:34;;;;;;;6.03;1.88;;;;;;;;;;5018579;28;20042;-77
2022/07/16 05:44:00;;;;;;;6.90;1.80;;;;;;;;;;5019754;28;20072;-77
2022/07/16 05:46:26;;;;;;;6.00;1.83;;;;;;;;;;5020475;28;20524;-77
2022/07/16 05:48:52;;;;;;;4.07;2.03;;;;;;;;;;5002605;28;20064;-78
2022/07/16 05:51:18;;;;;;;7.38;1.80;;;;;;;;;;5002317;28;20104;-78
2022/07/16 05:53:44;;;;;;;6.47;1.80;;;;;;;;;;5020907;28;20050;-75
2022/07/16 05:56:10;;;;;;;4.30;1.70;;;;;;;;;;5020307;28;20045;-76
2022/07/16 05:58:36;;;;;;;5.50;1.80;;;;;;;;;;5020170;28;20452;-77
2022/07/16 06:01:02;;;;;;;7.22;2.08;;;;;;;;;;5020092;28;20042;-77
2022/07/16 06:03:28;;;;;;;8.90;2.00;;;;;;;;;;5019925;28;20504;-76
2022/07/16 06:05:54;;;;;;;5.07;1.80;;;;;;;;;;5019480;28;20042;-77
2022/07/16 06:08:20;;;;;;;5.13;1.90;;;;;;;;;;5019593;28;20045;-76
2022/07/16 06:10:47;;;;;;;5.00;1.83;;;;;;;;;;5019911;28;20054;-76
2022/07/16 06:13:13;;;;;;;4.82;1.80;;;;;;;;;;5019805;28;20045;-78
2022/07/16 06:15:39;;;;;;;4.95;1.83;;;;;;;;;;5019138;28;20069;-76
2022/07/16 06:18:05;;;;;;;5.55;1.80;;;;;;;;;;5019139;28;20042;-77
2022/07/16 06:20:31;;;;;;;5.63;2.08;;;;;;;;;;5018374;28;20503;-76
2022/07/16 06:22:57;;;;;;;3.63;1.40;;;;;;;;;;5018109;28;20052;-76
2022/07/16 06:25:23;;;;;;;3.38;1.77;;;;;;;;;;5018819;28;20051;-76
2022/07/16 06:27:49;;;;;;;4.28;1.83;;;;;;;;;;5018465;28;20052;-77
2022/07/16 06:30:16;;;;;;;4.45;1.70;;;;;;;;;;5018345;28;20098;-77
2022/07/16 06:32:42;;;;;;;4.05;1.67;;;;;;;;;;5018651;28;20049;-76
2022/07/16 06:35:08;;;;;;;5.57;1.80;;;;;;;;;;5018095;28;20149;-76
2022/07/16 06:37:34;;;;;;;4.95;1.80;;;;;;;;;;5018238;28;20124;-77
2022/07/16 06:40:01;;;;;;;4.80;1.60;;;;;;;;;;5018629;28;20247;-77
2022/07/16 06:42:27;;;;;;;3.75;1.50;;;;;;;;;;5018351;28;20042;-77
2022/07/16 06:44:53;;;;;;;3.80;1.52;;;;;;;;;;5017879;28;20058;-77
2022/07/16 06:47:19;;;;;;;3.88;1.70;;;;;;;;;;5018581;28;20050;-77
2022/07/16 06:49:45;;;;;;;4.00;1.40;;;;;;;;;;5000525;28;20129;-76
2022/07/16 06:52:11;;;;;;;5.15;1.63;;;;;;;;;;5000501;28;20069;-76
2022/07/16 06:54:37;;;;;;;3.60;1.52;;;;;;;;;;5001015;28;20041;-76
2022/07/16 06:57:03;;;;;;;4.68;1.60;;;;;;;;;;5000806;28;20575;-77
2022/07/16 06:59:30;;;;;;;2.75;1.48;;;;;;;;;;5018558;28;20088;-77
2022/07/16 07:01:56;;;;;;;2.53;1.40;;;;;;;;;;5018994;28;20100;-77
2022/07/16 07:04:22;;;;;;;4.47;1.55;;;;;;;;;;5018791;28;20042;-77
2022/07/16 07:06:48;;;;;;;2.83;1.35;;;;;;;;;;5018003;28;20060;-77
2022/07/16 07:09:14;;;;;;;2.90;1.40;;;;;;;;;;5018224;28;20053;-76
2022/07/16 07:11:42;;;;;;;4.20;1.50;;;;;;;;;;5018271;28;20045;-77
2022/07/16 07:14:08;;;;;;;4.15;1.73;;;;;;;;;;5018524;28;20119;-76
2022/07/16 07:16:34;;;;;;;4.57;1.65;;;;;;;;;;5018013;28;20446;-76
2022/07/16 07:19:00;;;;;;;5.32;1.70;;;;;;;;;;5017788;28;20092;-78
2022/07/16 07:21:26;;;;;;;6.85;1.98;;;;;;;;;;5018050;28;20053;-76
2022/07/16 07:23:52;;;;;;;6.78;1.90;;;;;;;;;;5018714;28;20046;-77
2022/07/16 07:26:18;;;;;;;6.63;1.80;;;;;;;;;;5018770;28;20045;-77
2022/07/16 07:28:44;;;;;;;4.85;1.77;;;;;;;;;;5017797;28;20052;-77
2022/07/16 07:31:10;;;;;;;5.05;2.20;;;;;;;;;;5017922;28;20042;-77
2022/07/16 07:33:37;;;;;;;6.05;1.95;;;;;;;;;;5018118;28;20049;-77
2022/07/16 07:36:03;;;;;;;6.32;1.90;;;;;;;;;;5017528;28;20505;-76
2022/07/16 07:38:29;;;;;;;6.10;2.05;;;;;;;;;;5017877;28;20125;-77
2022/07/16 07:40:55;;;;;;;4.15;1.80;;;;;;;;;;4999770;28;20500;-77
2022/07/16 07:43:22;;;;;;;8.55;2.13;;;;;;;;;;5016316;28;20050;-77
2022/07/16 07:45:48;;;;;;;7.65;2.63;;;;;;;;;;5017799;28;20140;-77
2022/07/16 07:48:14;;;;;;;6.15;1.92;;;;;;;;;;5016785;28;20528;-77
2022/07/16 07:50:40;;;;;;;7.45;2.00;;;;;;;;;;5016219;28;20038;-77
2022/07/16 07:53:06;;;;;;;5.70;2.00;;;;;;;;;;5016932;28;20489;-77
2022/07/16 07:55:32;;;;;;;5.78;1.85;;;;;;;;;;5016988;28;20049;-77
2022/07/16 07:57:58;;;;;;;4.88;1.92;;;;;;;;;;5016696;28;20069;-76
2022/07/16 08:00:25;;;;;;;8.40;1.80;;;;;;;;;;5016936;28;20042;-78
2022/07/16 08:02:51;;;;;;;6.63;2.38;;;;;;;;;;5016458;28;20532;-77
2022/07/16 08:05:17;;;;;;;6.30;2.08;;;;;;;;;;5019511;28;20398;-78
2022/07/16 08:07:44;;;;;;;3.55;1.75;;;;;;;;;;5021538;28;20046;-78
2022/07/16 08:10:11;;;;;;;4.97;1.92;;;;;;;;;;5022125;28;20041;-78
2022/07/16 08:12:37;;;;;;;5.47;1.70;;;;;;;;;;5024033;28;20473;-78
2022/07/16 08:15:07;;;;;;;7.38;1.77;;;;;;;;;;5024590;28;20041;-77
2022/07/16 08:17:33;;;;;;;4.95;1.60;;;;;;;;;;5026176;28;20062;-77
2022/07/16 08:19:59;;;;;;;5.85;2.05;;;;;;;;;;5023638;28;20053;-78
2022/07/16 08:22:27;;;;;;;5.45;1.90;;;;;;;;;;5019749;28;20046;-78
2022/07/16 08:27:38;;;;;;;4.32;1.95;;;;;;;;;;5002550;28;20049;-77
2022/07/16 08:30:04;;;;;;;6.00;1.80;;;;;;;;;;5001660;28;20050;-78
2022/07/16 08:32:30;;;;;;;5.00;1.92;;;;;;;;;;5020118;28;20139;-78
2022/07/16 08:34:56;;;;;;;4.40;1.83;;;;;;;;;;5019544;28;20456;-79
2022/07/16 08:37:40;;;;;;;5.55;1.80;;;;;;;;;;5019775;28;20128;-78
2022/07/16 08:40:08;;;;;;;5.47;2.05;;;;;;;;;;5019657;28;20405;-79
2022/07/16 08:42:34;;;;;;;4.55;2.00;;;;;;;;;;5019235;28;20037;-79
2022/07/16 08:45:00;;;;;;;6.82;2.05;;;;;;;;;;5019291;28;20085;-78
2022/07/16 08:47:27;;;;;;;5.68;1.92;;;;;;;;;;5019320;28;20046;-78
2022/07/16 08:49:53;;;;;;;6.28;1.98;;;;;;;;;;5019073;28;20061;-77
2022/07/16 08:52:20;;;;;;;5.28;1.88;;;;;;;;;;5019010;28;20041;-78
2022/07/16 08:54:47;;;;;;;4.93;2.17;;;;;;;;;;5018550;28;20077;-78
2022/07/16 08:57:14;;;;;;;5.97;2.20;;;;;;;;;;5001125;28;20053;-77
2022/07/16 08:59:41;;;;;;;5.07;2.17;;;;;;;;;;5018607;28;20153;-77
2022/07/16 09:02:07;;;;;;;5.00;2.10;;;;;;;;;;5019208;28;20046;-77
2022/07/16 09:04:33;;;;;;;5.75;2.00;;;;;;;;;;5018798;28;20509;-77
2022/07/16 09:06:59;;;;;;;6.28;1.90;;;;;;;;;;5018240;28;20038;-77
2022/07/16 09:09:25;;;;;;;8.60;2.33;;;;;;;;;;5001016;28;20053;-77
2022/07/16 09:11:51;;;;;;;6.10;1.90;;;;;;;;;;5018846;28;20049;-78
2022/07/16 09:14:18;;;;;;;5.28;2.10;;;;;;;;;;5018654;28;20066;-77
2022/07/16 09:16:46;;;;;;;6.82;2.08;;;;;;;;;;5018670;28;20046;-77
2022/07/16 09:19:13;;;;;;;5.88;2.15;;;;;;;;;;5019345;28;20050;-77
2022/07/16 09:22:00;;;;;;;5.43;2.08;;;;;;;;;;5020226;28;20046;-77
2022/07/16 09:24:32;;;;;;;7.35;2.30;;;;;;;;;;5018692;28;20050;-77
2022/07/16 09:27:02;;;;;;;4.45;1.77;;;;;;;;;;4984971;28;20058;-78
2022/07/16 09:29:28;;;;;;;4.13;1.90;;;;;;;;;;5000777;28;20378;-79
2022/07/16 09:31:55;;;;;;;6.93;1.83;;;;;;;;;;5018321;28;20090;-78
2022/07/16 09:34:21;;;;;;;7.13;1.90;;;;;;;;;;5017776;28;20074;-78
2022/07/16 09:36:56;;;;;;;5.82;1.80;;;;;;;;;;5018269;28;20069;-79
2022/07/16 09:39:25;;;;;;;8.10;2.20;;;;;;;;;;5018201;28;20050;-78
2022/07/16 09:41:51;;;;;;;5.85;2.15;;;;;;;;;;5018147;28;20120;-79
2022/07/16 09:44:19;;;;;;;5.05;1.80;;;;;;;;;;5018043;28;20054;-77
2022/07/16 09:46:58;;;;;;;8.13;2.05;;;;;;;;;;5018332;28;20501;-77
2022/07/16 09:49:24;;;;;;;5.05;2.00;;;;;;;;;;5020590;28;20077;-79
2022/07/16 09:51:50;;;;;;;8.57;2.30;;;;;;;;;;5019637;28;20058;-78
2022/07/16 09:54:31;;;;;;;6.80;2.17;;;;;;;;;;5019256;28;20053;-78
2022/07/16 09:57:13;;;;;;;4.80;2.33;;;;;;;;;;5020125;28;20132;-78
2022/07/16 09:59:39;;;;;;;6.97;2.10;;;;;;;;;;5020018;28;20556;-77
2022/07/16 10:02:05;;;;;;;4.70;2.28;;;;;;;;;;5020012;28;20046;-77
2022/07/16 10:04:31;;;;;;;4.32;1.70;;;;;;;;;;5021038;28;20046;-78
2022/07/16 10:06:58;;;;;;;4.72;2.00;;;;;;;;;;5020570;28;20038;-77
2022/07/16 10:09:24;;;;;;;4.78;2.00;;;;;;;;;;5019663;28;20046;-77
2022/07/16 10:11:51;;;;;;;3.80;1.70;;;;;;;;;;5019519;28;20049;-78
2022/07/16 10:14:17;;;;;;;6.97;2.00;;;;;;;;;;5019768;28;20457;-79
2022/07/16 10:16:47;;;;;;;4.53;1.70;;;;;;;;;;5018910;28;20054;-78
2022/07/16 10:19:13;;;;;;;4.93;1.65;;;;;;;;;;5019277;28;20497;-78
2022/07/16 10:21:41;;;;;;;4.38;1.95;;;;;;;;;;5018910;28;20053;-79
2022/07/16 10:24:08;;;;;;;4.35;2.03;;;;;;;;;;5018742;28;20084;-78
2022/07/16 10:26:34;;;;;;;6.78;1.83;;;;;;;;;;5017555;28;20382;-79
2022/07/16 10:29:01;;;;;;;4.90;2.15;;;;;;;;;;5018734;28;20046;-79
2022/07/16 10:31:30;;;;;;;4.97;1.90;;;;;;;;;;5018195;28;20041;-79
2022/07/16 10:34:14;;;;;;;5.00;1.70;;;;;;;;;;5018958;28;20441;-79
2022/07/16 10:36:45;;;;;;;7.60;2.10;;;;;;;;;;5019411;28;20046;-78
2022/07/16 10:39:14;;;;;;;5.38;1.92;;;;;;;;;;5018922;28;20212;-77
2022/07/16 10:41:50;;;;;;;5.97;1.95;;;;;;;;;;5020819;28;20042;-79
2022/07/16 10:44:17;;;;;;;5.72;2.00;;;;;;;;;;5020921;28;20524;-78
2022/07/16 10:46:57;;;;;;;4.78;1.90;;;;;;;;;;5022460;28;20137;-79
2022/07/16 10:49:23;;;;;;;6.07;2.33;;;;;;;;;;5023280;28;20097;-79
2022/07/16 10:51:54;;;;;;;6.07;1.98;;;;;;;;;;5023810;28;20046;-78
2022/07/16 10:54:20;;;;;;;7.38;2.00;;;;;;;;;;5019924;28;20108;-78
2022/07/16 10:56:50;;;;;;;4.57;1.90;;;;;;;;;;5018573;28;20048;-78
2022/07/16 10:59:19;;;;;;;5.65;2.08;;;;;;;;;;5018225;28;20096;-78
2022/07/16 11:01:46;;;;;;;4.82;2.00;;;;;;;;;;5017723;28;20050;-78
2022/07/16 11:04:12;;;;;;;6.43;2.40;;;;;;;;;;5016782;28;20049;-79
2022/07/16 11:06:39;;;;;;;6.63;2.38;;;;;;;;;;5016522;28;20041;-79
2022/07/16 11:09:06;;;;;;;5.18;1.83;;;;;;;;;;5016441;28;20089;-77
2022/07/16 11:11:36;;;;;;;7.88;2.08;;;;;;;;;;5016359;28;20057;-78
2022/07/16 11:14:03;;;;;;;8.68;2.40;;;;;;;;;;5016697;28;20052;-77
2022/07/16 11:16:29;;;;;;;7.38;2.20;;;;;;;;;;5016360;28;20046;-79
2022/07/16 11:18:55;;;;;;;7.55;2.30;;;;;;;;;;5016445;28;20042;-79
2022/07/16 11:21:22;;;;;;;9.02;2.22;;;;;;;;;;5016552;28;20405;-79
2022/07/16 11:23:53;;;;;;;5.72;2.25;;;;;;;;;;5017022;28;20049;-78
2022/07/16 11:26:19;;;;;;;8.15;2.33;;;;;;;;;;5015916;28;20045;-79
2022/07/16 11:28:52;;;;;;;4.72;2.13;;;;;;;;;;5015718;28;20194;-80
2022/07/16 11:31:28;;;;;;;6.28;2.33;;;;;;;;;;5015435;28;20046;-79
2022/07/16 11:33:56;;;;;;;8.68;2.30;;;;;;;;;;5015412;28;20128;-78
2022/07/16 11:36:26;;;;;;;6.97;1.90;;;;;;;;;;5016210;28;20351;-77
2022/07/16 11:38:56;;;;;;;5.07;1.80;;;;;;;;;;5017126;28;20099;-78
2022/07/16 11:41:22;;;;;;;7.18;2.28;;;;;;;;;;5020364;28;20054;-78
2022/07/16 11:43:48;;;;;;;4.97;2.10;;;;;;;;;;5020389;28;20050;-78
2022/07/16 11:46:24;;;;;;;6.10;2.13;;;;;;;;;;5020039;28;20062;-78
2022/07/16 11:48:51;;;;;;;6.50;2.20;;;;;;;;;;5020898;28;20110;-77
2022/07/16 11:51:17;;;;;;;5.65;1.65;;;;;;;;;;5020658;28;20046;-77
2022/07/16 11:53:46;;;;;;;5.53;2.00;;;;;;;;;;5020390;28;20050;-77
2022/07/16 11:56:14;;;;;;;5.38;1.70;;;;;;;;;;5020497;28;20459;-78
2022/07/16 11:58:40;;;;;;;4.55;1.60;;;;;;;;;;5019279;28;20124;-78
2022/07/16 12:01:06;;;;;;;4.55;1.50;;;;;;;;;;5020737;28;20049;-78
2022/07/16 12:03:32;;;;;;;4.78;2.00;;;;;;;;;;5020624;28;20547;-77
2022/07/16 12:06:02;;;;;;;4.20;2.08;;;;;;;;;;5019756;28;20050;-78
2022/07/16 12:08:28;;;;;;;4.30;1.85;;;;;;;;;;5019724;28;20053;-78
2022/07/16 12:10:58;;;;;;;4.57;1.90;;;;;;;;;;5019804;28;20109;-78
2022/07/16 12:13:24;;;;;;;6.10;1.98;;;;;;;;;;5019634;28;20050;-78
2022/07/16 12:15:51;;;;;;;6.28;1.90;;;;;;;;;;5020016;28;20052;-78
2022/07/16 12:18:18;;;;;;;5.60;2.10;;;;;;;;;;5019088;28;20056;-78
2022/07/16 12:20:44;;;;;;;3.17;1.60;;;;;;;;;;5018138;28;20051;-79
2022/07/16 12:23:11;;;;;;;7.63;1.90;;;;;;;;;;5018682;28;20042;-78
2022/07/16 12:25:38;;;;;;;6.68;1.90;;;;;;;;;;5001847;28;20409;-79
2022/07/16 12:28:12;;;;;;;7.97;2.10;;;;;;;;;;5001381;28;20156;-78
2022/07/16 12:30:38;;;;;;;5.25;1.70;;;;;;;;;;4984519;28;20130;-79
2022/07/16 12:33:05;;;;;;;5.57;1.67;;;;;;;;;;5018874;28;20101;-79
2022/07/16 12:35:54;;;;;;;5.00;2.00;;;;;;;;;;5001176;28;20067;-79
2022/07/16 12:38:36;;;;;;;4.72;1.73;;;;;;;;;;5006519;28;20478;-79
2022/07/16 12:41:02;;;;;;;7.38;2.15;;;;;;;;;;5018618;28;20057;-78
2022/07/16 12:43:28;;;;;;;4.63;1.90;;;;;;;;;;5019323;28;20049;-79
2022/07/16 12:45:54;;;;;;;6.72;2.05;;;;;;;;;;5019070;28;20058;-79
2022/07/16 12:48:20;;;;;;;5.85;2.08;;;;;;;;;;5018451;28;20501;-78
2022/07/16 12:50:46;;;;;;;5.03;1.80;;;;;;;;;;5018067;28;20137;-78
2022/07/16 12:53:12;;;;;;;4.35;2.08;;;;;;;;;;5019608;28;20430;-79
2022/07/16 13:01:08;;;;;;;4.90;1.92;;;;;;;;;;5002636;28;20053;-79
2022/07/16 13:03:33;;;;;;;5.00;1.95;;;;;;;;;;5000573;28;20050;-78
2022/07/16 13:05:59;;;;;;;6.90;2.13;;;;;;;;;;5017840;28;20096;-78
2022/07/16 13:08:25;;;;;;;6.20;2.22;;;;;;;;;;5017944;28;20081;-79
2022/07/16 13:10:52;;;;;;;5.53;2.10;;;;;;;;;;5000570;28;20461;-78
2022/07/16 13:13:18;;;;;;;7.05;2.13;;;;;;;;;;5017447;28;20049;-79
2022/07/16 13:15:44;;;;;;;7.45;2.50;;;;;;;;;;5017943;28;20382;-79
2022/07/16 13:18:10;;;;;;;5.22;2.00;;;;;;;;;;5000741;28;20045;-78
2022/07/16 13:20:36;;;;;;;7.70;2.35;;;;;;;;;;5017713;28;20038;-78
2022/07/16 13:23:02;;;;;;;6.72;2.10;;;;;;;;;;4998689;28;20062;-79
2022/07/16 13:25:28;;;;;;;5.88;1.98;;;;;;;;;;5016627;28;20398;-78
2022/07/16 13:27:54;;;;;;;5.97;1.85;;;;;;;;;;5017524;28;20100;-79
2022/07/16 13:30:20;;;;;;;4.88;1.90;;;;;;;;;;5017083;28;20460;-78
2022/07/16 13:32:46;;;;;;;8.85;2.28;;;;;;;;;;5016460;28;20048;-79
2022/07/16 13:35:13;;;;;;;5.85;1.90;;;;;;;;;;5016498;28;20046;-79
2022/07/16 13:37:39;;;;;;;4.88;1.80;;;;;;;;;;5016556;28;20523;-78
2022/07/16 13:40:05;;;;;;;4.25;1.90;;;;;;;;;;5016804;28;20104;-78
2022/07/16 13:42:32;;;;;;;5.10;1.85;;;;;;;;;;5016094;28;20046;-78
2022/07/16 13:44:58;;;;;;;4.72;1.77;;;;;;;;;;5016006;28;20065;-78
2022/07/16 13:47:24;;;;;;;5.93;2.05;;;;;;;;;;5016241;28;20128;-79
2022/07/16 13:49:50;;;;;;;8.38;1.92;;;;;;;;;;5016716;28;20042;-79
2022/07/16 13:52:16;;;;;;;8.48;2.00;;;;;;;;;;5016390;28;20108;-78
2022/07/16 13:54:42;;;;;;;7.78;2.33;;;;;;;;;;5015930;28;20543;-78
2022/07/16 13:59:53;;;;;;;4.00;1.70;;;;;;;;;;5016752;28;20370;-78
2022/07/16 14:02:19;;;;;;;6.35;2.05;;;;;;;;;;5015848;28;20042;-78
2022/07/16 14:04:45;;;;;;;7.22;2.03;;;;;;;;;;5015998;28;20046;-77
2022/07/16 14:07:11;;;;;;;4.70;2.03;;;;;;;;;;5015801;28;20048;-78
2022/07/16 14:09:39;;;;;;;5.80;2.10;;;;;;;;;;5015907;28;20068;-77
2022/07/16 14:12:06;;;;;;;5.30;2.28;;;;;;;;;;5015969;28;20049;-78
2022/07/16 14:14:32;;;;;;;6.43;1.90;;;;;;;;;;4998408;28;20049;-78
2022/07/16 14:16:58;;;;;;;5.22;2.05;;;;;;;;;;4998364;28;20084;-78
2022/07/16 14:19:24;;;;;;;4.28;1.70;;;;;;;;;;4998402;28;20056;-78
2022/07/16 14:21:50;;;;;;;5.78;2.03;;;;;;;;;;5015406;28;20042;-79
2022/07/16 14:24:16;;;;;;;6.15;1.90;;;;;;;;;;4997795;28;20050;-79
2022/07/16 14:26:43;;;;;;;7.75;2.10;;;;;;;;;;4997702;28;20124;-78
2022/07/16 14:29:09;;;;;;;4.97;2.00;;;;;;;;;;5015748;28;20050;-79
2022/07/16 14:31:36;;;;;;;4.93;1.98;;;;;;;;;;5015429;28;20405;-79
2022/07/16 14:34:02;;;;;;;6.10;1.83;;;;;;;;;;5015062;28;20199;-79
2022/07/16 14:36:28;;;;;;;5.38;1.90;;;;;;;;;;5015533;28;20065;-78
2022/07/16 14:38:54;;;;;;;8.40;2.40;;;;;;;;;;5015344;28;20440;-79
2022/07/16 14:41:20;;;;;;;5.85;2.05;;;;;;;;;;5015961;28;20046;-77
2022/07/16 14:43:46;;;;;;;5.90;1.90;;;;;;;;;;5015680;28;20069;-78
2022/07/16 14:46:13;;;;;;;6.00;2.30;;;;;;;;;;5015927;28;20497;-78
2022/07/16 14:48:39;;;;;;;3.85;1.90;;;;;;;;;;5015434;28;20060;-77
2022/07/16 14:51:05;;;;;;;5.00;2.20;;;;;;;;;;5016058;28;20096;-78
2022/07/16 14:53:32;;;;;;;6.07;2.05;;;;;;;;;;5015470;28;20120;-77
2022/07/16 14:55:58;;;;;;;6.55;2.15;;;;;;;;;;4997794;28;20050;-77